createdAt,value
2018-02-06T00:00:05.675Z,10.00
2018-02-06T00:02:33.230Z,11.03
2018-02-06T00:05:00.846Z,11.33
2018-02-06T00:07:28.394Z,11.57
2018-02-06T00:09:55.938Z,12.43
2018-02-06T00:12:23.546Z,11.93
2018-02-06T00:14:51.130Z,10.97
2018-02-06T00:17:18.694Z,11.17
2018-02-06T00:19:46.274Z,13.17
2018-02-06T00:22:15.033Z,14.93
2018-02-06T00:24:42.616Z,14.37
2018-02-06T00:27:10.357Z,13.37
2018-02-06T00:29:37.926Z,13.50
2018-02-06T00:32:05.479Z,13.53
2018-02-06T00:34:33.075Z,13.37
2018-02-06T00:37:00.640Z,14.43
2018-02-06T00:39:28.203Z,12.83
2018-02-06T00:41:55.788Z,15.30
2018-02-06T00:44:24.347Z,13.43
2018-02-06T00:46:51.898Z,14.57
2018-02-06T00:49:19.558Z,14.57
2018-02-06T00:51:47.104Z,14.43
2018-02-06T00:54:14.646Z,13.87
2018-02-06T00:56:42.248Z,15.90
2018-02-06T00:59:09.783Z,16.00
2018-02-06T01:01:37.326Z,16.07
2018-02-06T01:04:05.027Z,16.87
2018-02-06T01:06:32.596Z,16.80
2018-02-06T01:09:00.142Z,17.07
2018-02-06T01:11:27.745Z,16.53
2018-02-06T01:13:55.296Z,16.60
2018-02-06T01:16:22.845Z,18.17
2018-02-06T01:18:50.536Z,17.90
2018-02-06T01:21:18.123Z,18.73
2018-02-06T01:23:45.673Z,18.70
2018-02-06T01:26:13.542Z,19.10
2018-02-06T01:28:41.101Z,17.37
2018-02-06T01:31:08.653Z,19.30
2018-02-06T01:33:36.236Z,18.57
2018-02-06T01:36:03.791Z,19.37
2018-02-06T01:38:31.353Z,20.83
2018-02-06T01:40:58.940Z,20.40
2018-02-06T01:43:26.507Z,19.73
2018-02-06T01:45:54.064Z,18.77
2018-02-06T01:48:21.806Z,21.03
2018-02-06T01:50:49.321Z,18.87
2018-02-06T01:53:16.872Z,19.93
2018-02-06T01:55:44.430Z,20.87
2018-02-06T01:58:11.974Z,18.67
2018-02-06T02:00:39.625Z,19.40
2018-02-06T02:03:07.234Z,18.60
2018-02-06T02:05:34.776Z,17.80
2018-02-06T02:08:02.354Z,18.03
2018-02-06T02:10:29.928Z,18.07
2018-02-06T02:12:57.476Z,18.60
2018-02-06T02:15:25.063Z,19.33
2018-02-06T02:17:52.630Z,18.37
2018-02-06T02:20:20.186Z,19.23
2018-02-06T02:22:47.880Z,19.17
2018-02-06T02:25:15.435Z,20.27
2018-02-06T02:27:42.997Z,19.93
2018-02-06T02:30:10.737Z,18.70
2018-02-06T02:32:38.291Z,18.93
2018-02-06T02:35:05.842Z,18.67
2018-02-06T02:37:33.573Z,18.57
2018-02-06T02:40:01.120Z,18.17
2018-02-06T04:40:32.012Z,26.90
2018-02-06T04:42:59.711Z,26.23
2018-02-06T04:45:27.301Z,26.50
2018-02-06T04:47:54.889Z,28.53
2018-02-06T04:50:22.633Z,27.57
2018-02-06T04:52:50.191Z,27.10
2018-02-06T04:55:17.749Z,27.10
2018-02-06T04:57:45.385Z,26.47
2018-02-06T05:00:12.935Z,26.27
2018-02-06T05:02:40.522Z,26.30
2018-02-06T05:05:08.130Z,23.93
2018-02-06T05:07:35.691Z,23.80
2018-02-06T05:10:03.249Z,24.07
2018-02-06T05:12:31.038Z,24.47
2018-02-06T05:14:58.642Z,26.97
2018-02-06T05:17:26.174Z,27.23
2018-02-06T05:19:53.763Z,25.37
2018-02-06T05:22:21.322Z,27.17
2018-02-06T05:24:48.874Z,28.47
2018-02-06T05:27:16.450Z,33.17
2018-02-06T05:29:44.007Z,33.27
2018-02-06T05:32:11.584Z,48.10
2018-02-06T05:34:39.179Z,29.73
2018-02-06T05:37:06.735Z,23.43
2018-02-06T05:39:34.302Z,24.93
2018-02-06T05:42:01.987Z,24.03
2018-02-06T05:44:29.588Z,23.27
2018-02-06T05:46:57.130Z,24.30
2018-02-06T05:49:24.821Z,24.93
2018-02-06T05:51:52.373Z,25.90
2018-02-06T05:54:19.933Z,23.33
2018-02-06T05:56:47.481Z,22.87
2018-02-06T05:59:15.037Z,27.27
2018-02-06T06:01:42.769Z,25.93
2018-02-06T06:04:10.313Z,51.73
2018-02-06T06:06:37.888Z,27.90
2018-02-06T06:09:05.501Z,37.67
2018-02-06T06:11:33.052Z,32.47
2018-02-06T06:14:00.602Z,24.63
2018-02-06T06:16:28.578Z,24.37
2018-02-06T06:18:56.125Z,24.87
2018-02-06T06:21:23.699Z,24.90
2018-02-06T06:23:51.434Z,24.47
2018-02-06T06:26:19.018Z,23.23
2018-02-06T06:28:46.576Z,29.00
2018-02-06T06:31:14.424Z,31.00
2018-02-06T06:33:42.009Z,27.93
2018-02-06T06:36:09.558Z,26.33
2018-02-06T06:38:37.205Z,26.97
2018-02-06T06:41:04.769Z,28.57
2018-02-06T06:43:32.318Z,27.40
2018-02-06T06:46:00.201Z,29.23
2018-02-06T06:48:27.760Z,62.37
2018-02-06T06:50:55.319Z,95.03
2018-02-06T06:53:23.183Z,38.47
2018-02-06T06:55:50.734Z,29.27
2018-02-06T06:58:18.277Z,26.07
2018-02-06T07:00:45.851Z,26.57
2018-02-06T07:03:13.397Z,28.67
2018-02-06T07:05:40.941Z,33.87
2018-02-06T07:08:08.675Z,33.17
2018-02-06T07:10:36.226Z,28.20
2018-02-06T07:13:03.780Z,29.07
2018-02-06T07:15:31.534Z,34.43
2018-02-06T07:17:59.085Z,36.57
2018-02-06T07:20:26.657Z,46.17
2018-02-06T07:22:54.346Z,30.80
2018-02-06T07:25:21.905Z,30.27
2018-02-06T07:27:49.454Z,30.03
2018-02-06T07:30:17.204Z,30.80
2018-02-06T07:32:44.767Z,30.93
2018-02-06T07:35:12.327Z,32.83
2018-02-06T07:37:40.199Z,31.20
2018-02-06T07:40:07.759Z,41.87
2018-02-06T07:42:35.337Z,136.20
2018-02-06T07:45:03.131Z,194.10
2018-02-06T07:47:30.715Z,227.57
2018-02-06T07:49:58.281Z,79.47
2018-02-06T07:52:25.893Z,43.13
2018-02-06T07:54:53.480Z,38.93
2018-02-06T07:57:21.050Z,34.40
2018-02-06T07:59:48.620Z,35.03
2018-02-06T08:02:16.187Z,33.67
2018-02-06T08:04:43.743Z,35.73
2018-02-06T08:07:11.342Z,32.03
2018-02-06T08:09:38.898Z,63.23
2018-02-06T08:12:06.459Z,45.30
2018-02-06T08:14:34.042Z,38.33
2018-02-06T08:17:01.596Z,52.90
2018-02-06T08:19:29.164Z,38.37
2018-02-06T08:21:56.764Z,45.80
2018-02-06T08:24:24.320Z,42.20
2018-02-06T08:26:51.894Z,36.07
2018-02-06T08:29:19.495Z,36.87
2018-02-06T08:31:47.672Z,35.77
2018-02-06T08:34:15.223Z,37.60
2018-02-06T08:36:43.032Z,63.57
2018-02-06T08:39:10.555Z,44.77
2018-02-06T08:41:38.097Z,34.53
2018-02-06T08:44:06.451Z,31.13
2018-02-06T08:46:34.011Z,63.90
2018-02-06T08:49:01.569Z,29.03
2018-02-06T08:51:30.648Z,30.40
2018-02-06T08:53:58.220Z,80.47
2018-02-06T08:56:25.765Z,47.97
2018-02-06T08:58:53.338Z,31.67
2018-02-06T09:01:20.883Z,29.20
2018-02-06T09:03:48.421Z,34.47
2018-02-06T09:06:16.187Z,29.37
2018-02-06T09:08:43.756Z,32.23
2018-02-06T09:11:11.332Z,31.00
2018-02-06T09:13:39.031Z,30.60
2018-02-06T09:16:06.588Z,30.27
2018-02-06T09:18:34.166Z,31.00
2018-02-06T09:21:02.738Z,30.23
2018-02-06T09:23:30.286Z,30.23
2018-02-06T09:25:57.855Z,32.33
2018-02-06T09:28:25.446Z,30.57
2018-02-06T09:30:53.012Z,30.47
2018-02-06T09:33:20.592Z,30.77
2018-02-06T09:35:48.187Z,30.33
2018-02-06T09:38:15.738Z,33.37
2018-02-06T09:40:43.291Z,30.30
2018-02-06T09:43:10.874Z,30.73
2018-02-06T09:45:38.431Z,79.87
2018-02-06T09:48:05.987Z,31.13
2018-02-06T09:50:33.690Z,28.20
2018-02-06T09:53:01.231Z,43.93
2018-02-06T09:55:28.781Z,38.17
2018-02-06T09:57:58.152Z,31.50
2018-02-06T10:00:25.707Z,51.93
2018-02-06T10:02:54.165Z,31.37
2018-02-06T10:05:22.221Z,32.17
2018-02-06T10:07:49.768Z,29.50
2018-02-06T10:10:17.347Z,26.80
2018-02-06T10:12:45.047Z,27.43
2018-02-06T10:15:12.599Z,25.87
2018-02-06T10:17:40.155Z,26.47
2018-02-06T10:20:07.749Z,24.90
2018-02-06T10:22:35.302Z,24.67
2018-02-06T10:25:02.847Z,23.97
2018-02-06T10:27:30.425Z,31.57
2018-02-06T10:29:57.969Z,24.43
2018-02-06T10:32:25.508Z,21.47
2018-02-06T10:34:53.084Z,20.53
2018-02-06T10:37:20.637Z,27.97
2018-02-06T10:39:48.699Z,18.93
2018-02-06T10:42:16.472Z,21.87
2018-02-06T10:44:44.054Z,26.23
2018-02-06T10:47:11.608Z,30.40
2018-02-06T10:49:39.177Z,45.50
2018-02-06T10:52:06.723Z,20.77
2018-02-06T10:54:34.289Z,20.30
2018-02-06T10:57:02.179Z,24.67
2018-02-06T10:59:29.727Z,21.60
2018-02-06T11:01:57.416Z,18.33
2018-02-06T11:04:24.981Z,19.03
2018-02-06T11:06:52.531Z,22.90
2018-02-06T11:09:20.120Z,17.73
2018-02-06T11:11:47.668Z,17.63
2018-02-06T11:14:15.222Z,20.97
2018-02-06T11:16:42.816Z,17.57
2018-02-06T11:19:10.370Z,21.83
2018-02-06T11:21:37.933Z,18.97
2018-02-06T11:24:05.660Z,17.57
2018-02-06T11:26:33.226Z,20.40
2018-02-06T11:29:00.783Z,25.70
2018-02-06T11:31:28.364Z,20.57
2018-02-06T11:33:55.908Z,25.37
2018-02-06T11:36:23.457Z,20.17
2018-02-06T11:38:51.144Z,22.47
2018-02-06T11:41:18.698Z,20.53
2018-02-06T11:43:46.245Z,31.90
2018-02-06T11:46:13.995Z,18.47
2018-02-06T11:48:41.574Z,17.37
2018-02-06T11:51:09.131Z,16.63
2018-02-06T11:53:36.733Z,16.33
2018-02-06T11:56:04.278Z,17.90
2018-02-06T11:58:31.826Z,22.20
2018-02-06T12:00:59.555Z,25.40
2018-02-06T12:03:27.105Z,20.10
2018-02-06T12:05:54.647Z,19.00
2018-02-06T12:08:22.221Z,23.43
2018-02-06T12:10:52.783Z,18.40
2018-02-06T12:13:20.335Z,20.33
2018-02-06T12:15:48.017Z,15.87
2018-02-06T12:18:15.583Z,29.83
2018-02-06T12:20:43.148Z,46.13
2018-02-06T12:23:10.765Z,17.30
2018-02-06T12:25:38.310Z,51.23
2018-02-06T12:28:05.866Z,20.17
2018-02-06T12:30:33.609Z,18.53
2018-02-06T12:33:01.155Z,28.47
2018-02-06T12:35:28.702Z,26.87
2018-02-06T12:37:56.311Z,34.87
2018-02-06T12:40:23.866Z,17.83
2018-02-06T12:42:51.429Z,25.90
2018-02-06T12:45:19.001Z,21.07
2018-02-06T12:47:46.558Z,20.00
2018-02-06T12:50:14.120Z,20.47
2018-02-06T12:52:41.719Z,18.63
2018-02-06T12:55:09.263Z,17.20
2018-02-06T12:57:36.825Z,17.87
2018-02-06T13:00:04.568Z,18.67
2018-02-06T13:02:32.117Z,18.17
2018-02-06T13:04:59.657Z,17.70
2018-02-06T13:07:27.423Z,17.13
2018-02-06T13:09:54.977Z,22.77
2018-02-06T13:12:22.536Z,18.20
2018-02-06T13:14:50.234Z,16.47
2018-02-06T13:17:17.819Z,16.83
2018-02-06T13:19:45.370Z,16.93
2018-02-06T13:22:12.957Z,17.47
2018-02-06T13:24:40.502Z,15.53
2018-02-06T13:27:08.054Z,17.10
2018-02-06T13:29:35.650Z,16.53
2018-02-06T13:32:03.213Z,15.53
2018-02-06T13:34:31.391Z,16.43
2018-02-06T13:36:59.135Z,16.07
2018-02-06T13:39:28.814Z,15.30
2018-02-06T13:41:56.388Z,15.43
2018-02-06T13:44:24.485Z,16.43
2018-02-06T13:46:52.044Z,16.07
2018-02-06T13:49:19.602Z,15.23
2018-02-06T13:51:47.302Z,15.60
2018-02-06T13:54:14.845Z,14.33
2018-02-06T13:56:42.392Z,16.17
2018-02-06T13:59:09.978Z,14.73
2018-02-06T14:01:37.542Z,16.33
2018-02-06T14:04:05.126Z,15.20
2018-02-06T14:06:32.862Z,14.30
2018-02-06T14:09:00.413Z,15.07
2018-02-06T14:11:27.985Z,14.23
2018-02-06T14:13:55.569Z,15.83
2018-02-06T14:16:23.141Z,15.57
2018-02-06T14:18:50.731Z,17.40
2018-02-06T14:21:18.342Z,18.13
2018-02-06T14:23:45.895Z,18.37
2018-02-06T14:26:13.451Z,20.67
2018-02-06T14:28:41.141Z,17.80
2018-02-06T14:31:08.702Z,17.90
2018-02-06T14:33:36.325Z,19.03
2018-02-06T14:36:03.908Z,20.13
2018-02-06T14:38:31.490Z,23.43
2018-02-06T14:40:59.109Z,27.70
2018-02-06T14:43:26.711Z,22.03
2018-02-06T14:45:54.318Z,17.13
2018-02-06T14:48:21.888Z,18.20
2018-02-06T14:50:49.591Z,17.53
2018-02-06T14:53:17.168Z,22.30
2018-02-06T14:55:44.726Z,21.50
2018-02-06T14:58:12.317Z,18.10
2018-02-06T15:00:39.916Z,18.00
2018-02-06T15:03:07.480Z,18.67
2018-02-06T15:05:35.552Z,17.30
2018-02-06T15:08:03.118Z,17.97
2018-02-06T15:10:30.671Z,19.50
2018-02-06T15:12:58.248Z,15.87
2018-02-06T15:15:26.308Z,15.63
2018-02-06T15:17:53.871Z,15.93
2018-02-06T15:20:21.750Z,15.80
2018-02-06T15:22:49.325Z,17.13
2018-02-06T15:25:16.920Z,16.10
2018-02-06T15:27:44.485Z,15.57
2018-02-06T15:30:12.130Z,14.20
2018-02-06T15:32:39.694Z,16.37
2018-02-06T15:35:07.406Z,14.83
2018-02-06T15:37:34.964Z,19.80
2018-02-06T15:40:02.576Z,22.57
2018-02-06T15:42:30.315Z,19.77
2018-02-06T15:44:57.911Z,20.60
2018-02-06T15:47:25.492Z,24.37
2018-02-06T15:49:53.238Z,22.83
2018-02-06T15:52:20.798Z,18.80
2018-02-06T15:54:48.376Z,15.63
2018-02-06T15:57:15.957Z,14.97
2018-02-06T15:59:43.537Z,15.10
2018-02-06T16:02:11.182Z,21.10
2018-02-06T16:04:38.738Z,24.10
2018-02-06T16:07:06.295Z,25.87
2018-02-06T16:09:34.160Z,20.27
2018-02-06T16:12:01.789Z,19.33
2018-02-06T16:14:29.349Z,19.93
2018-02-06T16:16:57.064Z,18.70
2018-02-06T16:19:24.617Z,16.20
2018-02-06T16:21:52.185Z,16.53
2018-02-06T16:24:19.871Z,16.73
2018-02-06T16:26:47.425Z,14.07
2018-02-06T16:29:14.974Z,22.63
2018-02-06T16:31:42.707Z,20.03
2018-02-06T16:34:10.267Z,24.13
2018-02-06T16:36:37.836Z,27.33
2018-02-06T16:39:05.622Z,29.20
2018-02-06T16:41:33.177Z,29.33
2018-02-06T16:44:00.757Z,28.77
2018-02-06T16:46:28.704Z,31.73
2018-02-06T16:48:56.266Z,36.13
2018-02-06T16:51:23.851Z,42.80
2018-02-06T16:53:51.459Z,37.70
2018-02-06T16:56:19.036Z,38.17
2018-02-06T16:58:46.605Z,48.27
2018-02-06T17:01:14.242Z,45.03
2018-02-06T17:03:41.810Z,42.83
2018-02-06T17:06:09.360Z,44.93
2018-02-06T17:08:37.884Z,42.50
2018-02-06T17:11:05.463Z,40.00
2018-02-06T17:13:33.024Z,34.40
2018-02-06T17:16:00.766Z,33.00
2018-02-06T17:18:28.327Z,38.57
2018-02-06T17:20:56.016Z,48.17
2018-02-06T17:23:23.627Z,41.17
2018-02-06T17:25:51.217Z,39.90
2018-02-06T17:28:18.765Z,38.63
2018-02-06T17:30:46.530Z,31.30
2018-02-06T17:33:14.080Z,30.10
2018-02-06T17:35:41.650Z,28.87
2018-02-06T17:38:09.384Z,27.40
2018-02-06T17:40:36.959Z,30.17
2018-02-06T17:43:04.514Z,32.50
2018-02-06T17:45:32.526Z,32.23
2018-02-06T17:48:00.090Z,33.03
2018-02-06T17:50:27.638Z,36.23
2018-02-06T17:52:55.559Z,33.90
2018-02-06T17:55:23.129Z,37.63
2018-02-06T17:57:50.677Z,39.27
2018-02-06T18:00:18.419Z,40.87
2018-02-06T18:02:46.008Z,38.50
2018-02-06T18:05:13.578Z,34.67
2018-02-06T18:07:41.250Z,35.53
2018-02-06T18:10:08.920Z,35.10
2018-02-06T18:12:36.516Z,34.10
2018-02-06T18:15:04.344Z,33.37
2018-02-06T18:17:31.904Z,33.73
2018-02-06T18:19:59.472Z,31.87
2018-02-06T18:22:27.077Z,31.93
2018-02-06T18:24:54.626Z,44.57
2018-02-06T18:27:24.180Z,36.47
2018-02-06T18:29:52.066Z,31.73
2018-02-06T18:32:20.372Z,23.90
2018-02-06T18:34:47.929Z,25.30
2018-02-06T18:37:15.666Z,22.73
2018-02-06T18:39:43.277Z,23.83
2018-02-06T18:42:10.851Z,26.20
2018-02-06T18:44:38.444Z,32.93
2018-02-06T18:47:06.041Z,25.63
2018-02-06T18:49:34.964Z,25.67
2018-02-06T18:52:02.657Z,47.10
2018-02-06T18:54:30.244Z,27.13
2018-02-06T18:56:57.879Z,24.30
2018-02-06T18:59:26.154Z,20.97
2018-02-06T19:01:53.722Z,24.50
2018-02-06T19:04:22.065Z,27.53
2018-02-06T19:06:49.674Z,28.23
2018-02-06T19:09:17.254Z,37.00
2018-02-06T19:11:44.868Z,42.77
2018-02-06T19:14:12.516Z,35.13
2018-02-06T19:16:40.075Z,27.20
2018-02-06T19:19:07.690Z,29.30
2018-02-06T19:21:35.436Z,26.00
2018-02-06T19:24:03.013Z,23.97
2018-02-06T19:26:30.590Z,23.07
2018-02-06T19:28:58.492Z,22.17
2018-02-06T19:31:26.064Z,22.43
2018-02-06T19:33:53.645Z,22.57
2018-02-06T19:36:21.613Z,22.33
2018-02-06T19:38:49.220Z,22.53
2018-02-06T19:41:16.788Z,21.83
2018-02-06T19:43:44.439Z,23.73
2018-02-06T19:46:12.046Z,24.93
2018-02-06T19:48:39.632Z,25.37
2018-02-06T19:51:07.669Z,25.30
2018-02-06T19:53:35.245Z,24.33
2018-02-06T19:56:02.836Z,25.17
2018-02-06T19:58:30.568Z,24.23
2018-02-06T20:00:58.138Z,22.40
2018-02-06T20:03:25.766Z,23.20
2018-02-06T20:05:53.454Z,22.00
2018-02-06T20:08:21.016Z,23.50
2018-02-06T20:10:48.566Z,24.33
2018-02-06T20:13:16.166Z,23.70
2018-02-06T20:15:43.764Z,26.97
2018-02-06T20:18:13.282Z,24.80
2018-02-06T20:20:41.009Z,25.10
2018-02-06T20:23:08.612Z,27.13
2018-02-06T20:25:36.171Z,30.20
2018-02-06T20:28:03.841Z,28.13
2018-02-06T20:30:31.405Z,33.97
2018-02-06T20:32:58.987Z,35.00
2018-02-06T20:35:26.565Z,32.77
2018-02-06T20:37:54.128Z,30.97
2018-02-06T20:40:21.687Z,28.67
2018-02-06T20:42:49.404Z,27.97
2018-02-06T20:45:16.985Z,27.17
2018-02-06T20:47:45.158Z,27.47
2018-02-06T20:50:12.752Z,37.37
2018-02-06T20:52:40.504Z,30.83
2018-02-06T20:55:08.077Z,24.67
2018-02-06T20:57:35.636Z,30.47
2018-02-06T21:00:03.285Z,29.97
2018-02-06T21:02:31.043Z,29.17
2018-02-06T21:04:58.597Z,25.27
2018-02-06T21:07:26.171Z,30.00
2018-02-06T21:09:53.815Z,30.10
2018-02-06T21:12:21.391Z,29.67
2018-02-06T21:14:48.968Z,30.37
2018-02-06T21:17:16.656Z,30.70
2018-02-06T21:19:44.217Z,29.90
2018-02-06T21:22:11.794Z,31.63
2018-02-06T21:24:39.391Z,31.37
2018-02-06T21:27:06.955Z,30.90
2018-02-06T21:29:34.580Z,29.57
2018-02-06T21:32:02.317Z,32.77
2018-02-06T21:34:29.870Z,31.60
2018-02-06T21:36:57.421Z,29.43
2018-02-06T21:39:25.021Z,34.00
2018-02-06T21:41:53.551Z,32.43
2018-02-06T21:44:21.108Z,35.60
2018-02-06T21:46:48.858Z,33.27
2018-02-06T21:49:16.434Z,34.73
2018-02-06T21:51:44.010Z,32.77
2018-02-06T21:54:11.903Z,33.80
2018-02-06T21:56:39.470Z,33.80
2018-02-06T21:59:07.076Z,33.43
2018-02-06T22:01:34.686Z,32.63
2018-02-06T22:04:02.230Z,31.13
2018-02-06T22:06:29.786Z,29.60
2018-02-06T22:08:57.381Z,31.00
2018-02-06T22:11:24.931Z,32.53
2018-02-06T22:13:52.476Z,32.03
2018-02-06T22:16:20.393Z,33.83
2018-02-06T22:18:47.943Z,30.10
2018-02-06T22:21:15.501Z,31.40
2018-02-06T22:23:43.235Z,33.23
2018-02-06T22:26:10.797Z,32.87
2018-02-06T22:28:38.352Z,31.90
2018-02-06T22:31:06.100Z,30.90
2018-02-06T22:33:33.645Z,31.30
2018-02-06T22:36:01.204Z,35.13
2018-02-06T22:38:28.944Z,34.13
2018-02-06T22:40:56.506Z,31.30
2018-02-06T22:43:24.047Z,30.73
2018-02-06T22:45:51.642Z,30.90
2018-02-06T22:48:19.196Z,32.37
2018-02-06T22:50:46.755Z,31.23
2018-02-06T22:53:14.356Z,30.23
2018-02-06T22:55:41.898Z,33.20
2018-02-06T22:58:09.456Z,32.17
2018-02-06T23:00:37.266Z,31.10
2018-02-06T23:03:04.808Z,30.73
2018-02-06T23:05:32.356Z,30.57
2018-02-06T23:07:59.952Z,30.87
2018-02-06T23:10:27.499Z,30.43
2018-02-06T23:12:55.059Z,30.67
2018-02-06T23:15:22.676Z,31.93
2018-02-06T23:17:50.225Z,32.03
2018-02-06T23:20:17.786Z,27.83
2018-02-06T23:22:45.520Z,27.40
2018-02-06T23:25:13.074Z,26.20
2018-02-06T23:27:40.625Z,27.27
2018-02-06T23:30:08.231Z,26.20
2018-02-06T23:32:35.789Z,24.43
2018-02-06T23:35:03.341Z,26.73
2018-02-06T23:37:31.213Z,25.77
2018-02-06T23:39:58.767Z,23.07
2018-02-06T23:42:26.332Z,21.77
2018-02-06T23:44:54.078Z,21.43
2018-02-06T23:47:21.621Z,25.27
2018-02-06T23:49:49.167Z,28.23
2018-02-06T23:52:16.905Z,27.70
2018-02-06T23:54:44.470Z,25.00
2018-02-06T23:57:12.022Z,26.03
2018-02-06T23:59:40.962Z,24.30
